Airfield :
LOGIN :

Register | Disclaimer

   EN    FR    IT 

 










Legend :    VFR   Marginal VFR   IFR   Intensive IFR   Very Intensive IFR
Visi :
Ceiling :
>= 8 km
>= 3000ft
5 to 8 km
1000 to 3000 ft
1500m to 5 km
500 to 1000 ft
800 to 1500m
200 to 500 ft
< 800m
< 200 ft
Symbols :   Thunderstorms  Fog  Heavy snow  Heavy precipitations  Wind > 20 kt
SIGMETs :     Misc.  Thunderstorms  Icing  Turbulence  Mountain Waves  Volcanic Ashes







- Airport Elevation : 370 ft


EBBE - Beauvechain AB

CURRENT METAR :
  • 181103Z 19006KT 0400 FZFG BKN001 BKN002 00/M00 Q1020 RED RED

EXPIRED METARs :
  • 181025Z 18005KT 0400 FZFG BKN001 BKN002 00/M00 Q1020 BLACKRED RED
  • 181011Z 19005KT 0200 FZFG SCT001 BKN002 M00/M00 Q1020 BLACKRED RED
  • 180955Z 17004KT 0200 FZFG SCT001 BKN002 M00/M01 Q1020 BLACKRED AMB TEMPO RED
  • 180946Z 16005KT 0700 FZFG SCT001 BKN002 M00/M01 Q1020 BLACKRED AMB TEMPO RED
  • 180937Z 17004KT 3000 BKN200 M00/M01 Q1020 BLACKYLO GRN TEMPO YLO
  • 180855Z VRB02KT 4500 BKN200 M00/M01 Q1020 BLACKGRN GRN TEMPO YLO
  • 180825Z VRB02KT 4500 BKN200 M01/M01 Q1019 BLACKGRN GRN TEMPO YLO

TAF TAF EBBE
Valid from the 18 at 10:00 until the 18 at 19:00 UTC


180841Z 1810/1819 24004KT 6000 FEW200
PROB30
TEMPO 1810/1812 SCT005 SCT200
BECMG 1812/1814 18005KT 9999 SCT200
BECMG 1817/1819 BKN020
No reported NOTAMs for that airfield.



MET'MAP, your aeronautical weather chart ! - Copyright ORBIFLY December 2007 - Disclaimer

ORBIFLY MET'MAP TEAM :

Programming & Development : Alexandra Zaïnal
Concept & Development : Baudouin d'Aumeries
Co-Development & Prog : Marc-Olivier Méhu
Technical & hardware support : Manuel Goepfert

Contact : metmap@orbifly.com




SOURCES & CREDITS :

   NOAA